Pagina principale
METAR-TAF:

METAR-TAF

Aeroporti :

Aeroporto di Zagabria-Franjo Tuđman

Zagabria, Croazia

latitudine: 45-44N, longitudine: 016-04E, altezza: 106 m

Osservazione

Il bollettino è stato emesso 23 minuti fa, alle 20:30 UTC
Vento 2 kt da direzioni variabili
Temperature 12°C
Umidità 88%
Pressione 1021 hPa
Visibilità 10 km o più
nessuna nube inferiore a 1500 m e nessun cumulonembo

METAR: LDZA 222030Z VRB02KT CAVOK 12/10 Q1021 TEMPO 23007KT

Ora: 22:53 (20:53 UTC)

Previsione

Il bollettino è stato emesso 3 ore e 28 minuti fa, alle 17:25 UTC
Previsione valida dal 22 alle 18 UTC al 23 alle 18 UTC
Vento 5 kt da nord/nord-est
Visibilità 10 km o più
Nubi sparse ad un'altezza di 2000 ft
Probabilità 40% :
Temporaneamente
dal 22 alle 18 UTC al 23 alle 00 UTC
Vento 6 kt da sud-ovest

TAF: LDZA 221725Z 2218/2318 03005KT 9999 SCT020 TX20/2313Z TN09/2303Z PROB40 TEMPO 2218/2300 23006KT

Osservazioni e previsioni meteorologiche di più di 4000 aeroporti (messaggi METAR e TAF).

Le stazioni disponibili sono rappresentate dai dischi gialli e rossi sulla carta.

Puntare il mouse per vedere il nome della stazione.

Clicca sopra per visualizzare le osservazioni e previsioni meteorologiche.

Per cambiare la mappa : fare clic sui pulsanti verdi con una croce nera per ingrandire, il pulsante verde con un trattino per diminuire, o sulla freccia verde per le mappe adiacenti.


METAR-TAF: